Alpha, Washington
Current Conditions -  °F | °C
As of 4:35 PM on Sunday 21 Dec 2014 (Local Time) from KCLS Reporting Station
Broken Clouds Broken Clouds  
Wind Chill: 54°   Ceiling: 5500
Heat Index: 54°   Visibility: 10mi
Dew Point: 50°   Wind: 0mph
Humidity: 88%   Direction: NA
Pressure: 30.1"   Gusts: NA
Location:  46.5995°N, 122.665°W
Report Text: KCLS 220035Z AUTO 00000KT 10SM FEW028 BKN055 12/10 A3010 RMK AO2
Loading
Personal Weather Stations






























Interactive Weather Map New forecast layout! Learn more

10-Day Weather Forecast

Advertisements
Track Severe Weather on mobile